sensor_id;sensor_type;location;lat;lon;timestamp;P1;durP1;ratioP1;P2;durP2;ratioP2
14847;SDS011;7516;43.570;1.448;2024-01-16T00:02:04;5.10;;;3.70;;
14847;SDS011;7516;43.570;1.448;2024-01-16T00:04:33;4.40;;;3.93;;
14847;SDS011;7516;43.570;1.448;2024-01-16T00:07:03;3.80;;;3.40;;
14847;SDS011;7516;43.570;1.448;2024-01-16T00:09:32;3.47;;;3.13;;
14847;SDS011;7516;43.570;1.448;2024-01-16T00:12:00;6.27;;;3.30;;
14847;SDS011;7516;43.570;1.448;2024-01-16T00:14:28;4.50;;;3.10;;
14847;SDS011;7516;43.570;1.448;2024-01-16T00:16:55;4.30;;;2.83;;
14847;SDS011;7516;43.570;1.448;2024-01-16T00:19:22;3.43;;;2.60;;
14847;SDS011;7516;43.570;1.448;2024-01-16T00:21:50;4.27;;;2.80;;
14847;SDS011;7516;43.570;1.448;2024-01-16T00:24:19;2.90;;;2.43;;
14847;SDS011;7516;43.570;1.448;2024-01-16T00:26:46;3.20;;;2.47;;
14847;SDS011;7516;43.570;1.448;2024-01-16T00:29:15;2.37;;;2.10;;
14847;SDS011;7516;43.570;1.448;2024-01-16T00:31:42;3.20;;;2.43;;
14847;SDS011;7516;43.570;1.448;2024-01-16T00:34:09;2.03;;;1.60;;
14847;SDS011;7516;43.570;1.448;2024-01-16T00:36:37;1.90;;;1.70;;
14847;SDS011;7516;43.570;1.448;2024-01-16T00:39:04;2.67;;;1.27;;
14847;SDS011;7516;43.570;1.448;2024-01-16T00:41:34;1.67;;;1.17;;
14847;SDS011;7516;43.570;1.448;2024-01-16T00:44:02;2.53;;;1.00;;
14847;SDS011;7516;43.570;1.448;2024-01-16T00:46:29;2.43;;;1.20;;
14847;SDS011;7516;43.570;1.448;2024-01-16T00:48:56;3.63;;;1.40;;
14847;SDS011;7516;43.570;1.448;2024-01-16T00:51:24;1.67;;;1.50;;
14847;SDS011;7516;43.570;1.448;2024-01-16T00:53:51;1.73;;;1.10;;
14847;SDS011;7516;43.570;1.448;2024-01-16T00:56:19;1.27;;;0.87;;
14847;SDS011;7516;43.570;1.448;2024-01-16T00:58:48;1.10;;;1.00;;
14847;SDS011;7516;43.570;1.448;2024-01-16T01:01:15;1.57;;;1.27;;
14847;SDS011;7516;43.570;1.448;2024-01-16T01:03:43;1.13;;;1.03;;
14847;SDS011;7516;43.570;1.448;2024-01-16T01:06:10;2.20;;;1.10;;
14847;SDS011;7516;43.570;1.448;2024-01-16T01:08:38;1.53;;;0.93;;
14847;SDS011;7516;43.570;1.448;2024-01-16T01:11:05;2.23;;;0.93;;
14847;SDS011;7516;43.570;1.448;2024-01-16T01:13:33;1.70;;;1.00;;
14847;SDS011;7516;43.570;1.448;2024-01-16T01:16:01;0.80;;;0.70;;
14847;SDS011;7516;43.570;1.448;2024-01-16T01:18:29;1.97;;;1.00;;
14847;SDS011;7516;43.570;1.448;2024-01-16T01:20:57;1.43;;;1.10;;
14847;SDS011;7516;43.570;1.448;2024-01-16T01:23:24;2.63;;;1.40;;
14847;SDS011;7516;43.570;1.448;2024-01-16T01:25:51;1.53;;;1.10;;
14847;SDS011;7516;43.570;1.448;2024-01-16T01:28:19;1.70;;;1.30;;
14847;SDS011;7516;43.570;1.448;2024-01-16T01:30:46;1.57;;;1.47;;
14847;SDS011;7516;43.570;1.448;2024-01-16T01:33:15;2.37;;;1.60;;
14847;SDS011;7516;43.570;1.448;2024-01-16T01:35:43;2.47;;;1.50;;
14847;SDS011;7516;43.570;1.448;2024-01-16T01:38:10;1.73;;;1.60;;
14847;SDS011;7516;43.570;1.448;2024-01-16T01:40:38;1.90;;;1.53;;
14847;SDS011;7516;43.570;1.448;2024-01-16T01:45:57;2.87;;;1.80;;
14847;SDS011;7516;43.570;1.448;2024-01-16T01:48:36;2.30;;;1.50;;
14847;SDS011;7516;43.570;1.448;2024-01-16T01:51:06;1.90;;;1.60;;
14847;SDS011;7516;43.570;1.448;2024-01-16T01:53:34;2.83;;;1.70;;
14847;SDS011;7516;43.570;1.448;2024-01-16T01:56:03;2.40;;;1.40;;
14847;SDS011;7516;43.570;1.448;2024-01-16T01:58:34;2.37;;;1.40;;
14847;SDS011;7516;43.570;1.448;2024-01-16T02:01:03;2.33;;;1.13;;
14847;SDS011;7516;43.570;1.448;2024-01-16T02:03:32;1.17;;;1.00;;
14847;SDS011;7516;43.570;1.448;2024-01-16T02:06:06;1.20;;;1.10;;
14847;SDS011;7516;43.570;1.448;2024-01-16T02:08:34;1.27;;;1.10;;
14847;SDS011;7516;43.570;1.448;2024-01-16T02:11:02;1.93;;;1.00;;
14847;SDS011;7516;43.570;1.448;2024-01-16T02:13:31;1.07;;;0.93;;
14847;SDS011;7516;43.570;1.448;2024-01-16T02:15:58;1.40;;;1.10;;
14847;SDS011;7516;43.570;1.448;2024-01-16T02:18:26;2.00;;;0.80;;
14847;SDS011;7516;43.570;1.448;2024-01-16T02:20:55;2.27;;;1.00;;
14847;SDS011;7516;43.570;1.448;2024-01-16T02:23:27;1.47;;;1.00;;
14847;SDS011;7516;43.570;1.448;2024-01-16T02:25:55;1.20;;;1.10;;
14847;SDS011;7516;43.570;1.448;2024-01-16T02:28:23;3.60;;;2.10;;
14847;SDS011;7516;43.570;1.448;2024-01-16T02:30:50;1.53;;;1.10;;
14847;SDS011;7516;43.570;1.448;2024-01-16T02:33:18;1.37;;;1.27;;
14847;SDS011;7516;43.570;1.448;2024-01-16T02:35:45;1.50;;;0.83;;
14847;SDS011;7516;43.570;1.448;2024-01-16T02:38:13;3.00;;;0.90;;
14847;SDS011;7516;43.570;1.448;2024-01-16T02:40:42;2.13;;;1.07;;
14847;SDS011;7516;43.570;1.448;2024-01-16T02:43:09;3.07;;;1.00;;
14847;SDS011;7516;43.570;1.448;2024-01-16T02:45:37;1.70;;;0.80;;
14847;SDS011;7516;43.570;1.448;2024-01-16T02:48:05;2.03;;;1.10;;
14847;SDS011;7516;43.570;1.448;2024-01-16T02:50:32;2.93;;;1.07;;
14847;SDS011;7516;43.570;1.448;2024-01-16T02:53:00;1.57;;;0.90;;
14847;SDS011;7516;43.570;1.448;2024-01-16T02:55:27;1.97;;;0.90;;
14847;SDS011;7516;43.570;1.448;2024-01-16T02:57:56;1.90;;;1.00;;
14847;SDS011;7516;43.570;1.448;2024-01-16T03:00:24;1.53;;;1.00;;
14847;SDS011;7516;43.570;1.448;2024-01-16T03:02:51;2.13;;;1.00;;
14847;SDS011;7516;43.570;1.448;2024-01-16T03:05:19;1.70;;;1.20;;
14847;SDS011;7516;43.570;1.448;2024-01-16T03:07:47;1.50;;;1.00;;
14847;SDS011;7516;43.570;1.448;2024-01-16T03:10:14;1.50;;;1.00;;
14847;SDS011;7516;43.570;1.448;2024-01-16T03:12:42;1.17;;;0.97;;
14847;SDS011;7516;43.570;1.448;2024-01-16T03:15:10;1.33;;;1.20;;
14847;SDS011;7516;43.570;1.448;2024-01-16T03:17:38;1.70;;;1.30;;
14847;SDS011;7516;43.570;1.448;2024-01-16T03:20:06;1.30;;;1.20;;
14847;SDS011;7516;43.570;1.448;2024-01-16T03:22:34;2.40;;;1.40;;
14847;SDS011;7516;43.570;1.448;2024-01-16T03:25:02;1.50;;;1.40;;
14847;SDS011;7516;43.570;1.448;2024-01-16T03:27:30;1.47;;;1.37;;
14847;SDS011;7516;43.570;1.448;2024-01-16T03:29:57;1.87;;;1.00;;
14847;SDS011;7516;43.570;1.448;2024-01-16T03:32:26;1.93;;;1.33;;
14847;SDS011;7516;43.570;1.448;2024-01-16T03:34:54;2.97;;;1.40;;
14847;SDS011;7516;43.570;1.448;2024-01-16T03:37:22;1.50;;;1.40;;
14847;SDS011;7516;43.570;1.448;2024-01-16T03:39:49;2.60;;;1.50;;
14847;SDS011;7516;43.570;1.448;2024-01-16T03:42:16;1.70;;;1.60;;
14847;SDS011;7516;43.570;1.448;2024-01-16T03:44:44;2.20;;;1.63;;
14847;SDS011;7516;43.570;1.448;2024-01-16T03:47:11;1.87;;;1.60;;
14847;SDS011;7516;43.570;1.448;2024-01-16T03:49:40;2.17;;;1.57;;
14847;SDS011;7516;43.570;1.448;2024-01-16T03:52:08;1.50;;;1.40;;
14847;SDS011;7516;43.570;1.448;2024-01-16T03:54:35;2.07;;;1.67;;
14847;SDS011;7516;43.570;1.448;2024-01-16T03:57:07;2.47;;;1.70;;
14847;SDS011;7516;43.570;1.448;2024-01-16T03:59:36;1.87;;;1.77;;
14847;SDS011;7516;43.570;1.448;2024-01-16T04:02:04;2.70;;;1.83;;
14847;SDS011;7516;43.570;1.448;2024-01-16T04:04:31;3.57;;;1.67;;
14847;SDS011;7516;43.570;1.448;2024-01-16T04:07:00;3.20;;;1.80;;
14847;SDS011;7516;43.570;1.448;2024-01-16T04:09:27;2.07;;;1.73;;
14847;SDS011;7516;43.570;1.448;2024-01-16T04:11:55;2.40;;;1.73;;
14847;SDS011;7516;43.570;1.448;2024-01-16T04:14:22;4.33;;;1.80;;
14847;SDS011;7516;43.570;1.448;2024-01-16T04:16:50;2.00;;;1.80;;
14847;SDS011;7516;43.570;1.448;2024-01-16T04:19:17;3.13;;;1.63;;
14847;SDS011;7516;43.570;1.448;2024-01-16T04:21:45;3.33;;;2.00;;
14847;SDS011;7516;43.570;1.448;2024-01-16T04:24:13;1.90;;;1.80;;
14847;SDS011;7516;43.570;1.448;2024-01-16T04:26:41;3.23;;;2.00;;
14847;SDS011;7516;43.570;1.448;2024-01-16T04:29:08;2.50;;;2.00;;
14847;SDS011;7516;43.570;1.448;2024-01-16T04:31:38;3.67;;;2.20;;
14847;SDS011;7516;43.570;1.448;2024-01-16T04:34:06;2.70;;;2.10;;
14847;SDS011;7516;43.570;1.448;2024-01-16T04:36:34;2.30;;;2.10;;
14847;SDS011;7516;43.570;1.448;2024-01-16T04:39:01;2.67;;;1.97;;
14847;SDS011;7516;43.570;1.448;2024-01-16T04:41:31;3.63;;;1.90;;
14847;SDS011;7516;43.570;1.448;2024-01-16T04:43:58;3.00;;;2.10;;
14847;SDS011;7516;43.570;1.448;2024-01-16T04:46:25;3.07;;;1.97;;
14847;SDS011;7516;43.570;1.448;2024-01-16T04:48:53;2.27;;;2.07;;
14847;SDS011;7516;43.570;1.448;2024-01-16T04:51:20;3.63;;;2.23;;
14847;SDS011;7516;43.570;1.448;2024-01-16T04:53:48;2.23;;;2.03;;
14847;SDS011;7516;43.570;1.448;2024-01-16T04:56:15;4.57;;;2.20;;
14847;SDS011;7516;43.570;1.448;2024-01-16T04:58:44;3.23;;;2.47;;
14847;SDS011;7516;43.570;1.448;2024-01-16T05:01:12;3.10;;;1.93;;
14847;SDS011;7516;43.570;1.448;2024-01-16T05:03:40;4.50;;;2.30;;
14847;SDS011;7516;43.570;1.448;2024-01-16T05:06:11;2.77;;;2.40;;
14847;SDS011;7516;43.570;1.448;2024-01-16T05:08:40;3.50;;;2.37;;
14847;SDS011;7516;43.570;1.448;2024-01-16T05:11:07;3.27;;;2.20;;
14847;SDS011;7516;43.570;1.448;2024-01-16T05:13:35;3.43;;;2.30;;
14847;SDS011;7516;43.570;1.448;2024-01-16T05:16:04;2.30;;;1.90;;
14847;SDS011;7516;43.570;1.448;2024-01-16T05:18:32;3.17;;;1.87;;
14847;SDS011;7516;43.570;1.448;2024-01-16T05:20:59;2.93;;;1.80;;
14847;SDS011;7516;43.570;1.448;2024-01-16T05:23:27;3.53;;;2.10;;
14847;SDS011;7516;43.570;1.448;2024-01-16T05:25:54;4.23;;;1.70;;
14847;SDS011;7516;43.570;1.448;2024-01-16T05:28:22;3.20;;;1.60;;
14847;SDS011;7516;43.570;1.448;2024-01-16T05:30:50;4.00;;;1.87;;
14847;SDS011;7516;43.570;1.448;2024-01-16T05:33:19;4.30;;;1.30;;
14847;SDS011;7516;43.570;1.448;2024-01-16T05:35:46;1.57;;;1.40;;
14847;SDS011;7516;43.570;1.448;2024-01-16T05:38:14;2.27;;;1.30;;
14847;SDS011;7516;43.570;1.448;2024-01-16T05:40:41;2.60;;;1.00;;
14847;SDS011;7516;43.570;1.448;2024-01-16T05:43:09;1.93;;;1.10;;
14847;SDS011;7516;43.570;1.448;2024-01-16T05:45:36;1.83;;;1.10;;
14847;SDS011;7516;43.570;1.448;2024-01-16T05:48:04;2.80;;;1.00;;
14847;SDS011;7516;43.570;1.448;2024-01-16T05:50:35;1.83;;;1.10;;
14847;SDS011;7516;43.570;1.448;2024-01-16T05:53:03;1.43;;;1.00;;
14847;SDS011;7516;43.570;1.448;2024-01-16T05:55:31;2.90;;;1.10;;
14847;SDS011;7516;43.570;1.448;2024-01-16T05:58:00;2.60;;;1.10;;
14847;SDS011;7516;43.570;1.448;2024-01-16T06:00:28;2.23;;;0.73;;
14847;SDS011;7516;43.570;1.448;2024-01-16T06:02:55;2.40;;;0.87;;
14847;SDS011;7516;43.570;1.448;2024-01-16T06:05:23;2.53;;;0.80;;
14847;SDS011;7516;43.570;1.448;2024-01-16T06:07:52;1.00;;;0.90;;
14847;SDS011;7516;43.570;1.448;2024-01-16T06:10:19;1.53;;;0.90;;
14847;SDS011;7516;43.570;1.448;2024-01-16T06:12:47;1.03;;;0.70;;
14847;SDS011;7516;43.570;1.448;2024-01-16T06:15:14;2.50;;;1.00;;
14847;SDS011;7516;43.570;1.448;2024-01-16T06:17:42;1.17;;;0.90;;
14847;SDS011;7516;43.570;1.448;2024-01-16T06:20:10;2.23;;;0.93;;
14847;SDS011;7516;43.570;1.448;2024-01-16T06:22:37;1.17;;;0.80;;
14847;SDS011;7516;43.570;1.448;2024-01-16T06:25:06;1.37;;;0.80;;
14847;SDS011;7516;43.570;1.448;2024-01-16T06:27:34;1.00;;;0.80;;
14847;SDS011;7516;43.570;1.448;2024-01-16T06:30:02;0.80;;;0.77;;
14847;SDS011;7516;43.570;1.448;2024-01-16T06:32:30;1.80;;;0.60;;
14847;SDS011;7516;43.570;1.448;2024-01-16T06:34:57;0.93;;;0.70;;
14847;SDS011;7516;43.570;1.448;2024-01-16T06:37:25;2.33;;;0.90;;
14847;SDS011;7516;43.570;1.448;2024-01-16T06:39:52;1.10;;;0.70;;
14847;SDS011;7516;43.570;1.448;2024-01-16T06:42:21;2.13;;;1.33;;
14847;SDS011;7516;43.570;1.448;2024-01-16T06:44:48;1.23;;;0.70;;
14847;SDS011;7516;43.570;1.448;2024-01-16T06:47:16;1.90;;;0.80;;
14847;SDS011;7516;43.570;1.448;2024-01-16T06:49:43;0.90;;;0.60;;
14847;SDS011;7516;43.570;1.448;2024-01-16T06:52:11;0.60;;;0.50;;
14847;SDS011;7516;43.570;1.448;2024-01-16T06:54:38;0.83;;;0.70;;
14847;SDS011;7516;43.570;1.448;2024-01-16T06:57:06;1.63;;;0.60;;
14847;SDS011;7516;43.570;1.448;2024-01-16T06:59:34;0.70;;;0.60;;
14847;SDS011;7516;43.570;1.448;2024-01-16T07:02:02;2.93;;;0.80;;
14847;SDS011;7516;43.570;1.448;2024-01-16T07:04:30;1.10;;;1.00;;
14847;SDS011;7516;43.570;1.448;2024-01-16T07:06:57;2.43;;;1.73;;
14847;SDS011;7516;43.570;1.448;2024-01-16T07:09:25;2.07;;;1.40;;
14847;SDS011;7516;43.570;1.448;2024-01-16T07:11:54;3.37;;;1.17;;
14847;SDS011;7516;43.570;1.448;2024-01-16T07:14:22;3.53;;;1.57;;
14847;SDS011;7516;43.570;1.448;2024-01-16T07:16:50;2.00;;;1.30;;
14847;SDS011;7516;43.570;1.448;2024-01-16T07:19:18;10.10;;;2.83;;
14847;SDS011;7516;43.570;1.448;2024-01-16T07:21:45;2.53;;;1.50;;
14847;SDS011;7516;43.570;1.448;2024-01-16T07:24:13;6.10;;;2.10;;
14847;SDS011;7516;43.570;1.448;2024-01-16T07:26:40;1.20;;;1.10;;
14847;SDS011;7516;43.570;1.448;2024-01-16T07:29:08;1.97;;;0.97;;
14847;SDS011;7516;43.570;1.448;2024-01-16T07:31:35;2.90;;;1.40;;
14847;SDS011;7516;43.570;1.448;2024-01-16T07:34:04;5.13;;;2.73;;
14847;SDS011;7516;43.570;1.448;2024-01-16T07:36:31;3.67;;;1.50;;
14847;SDS011;7516;43.570;1.448;2024-01-16T07:38:59;2.63;;;1.50;;
14847;SDS011;7516;43.570;1.448;2024-01-16T07:41:26;4.73;;;2.00;;
14847;SDS011;7516;43.570;1.448;2024-01-16T07:43:54;2.50;;;1.70;;
14847;SDS011;7516;43.570;1.448;2024-01-16T07:46:21;3.63;;;2.17;;
14847;SDS011;7516;43.570;1.448;2024-01-16T07:48:48;3.33;;;1.80;;
14847;SDS011;7516;43.570;1.448;2024-01-16T07:51:17;3.47;;;1.43;;
14847;SDS011;7516;43.570;1.448;2024-01-16T07:53:45;3.60;;;1.20;;
14847;SDS011;7516;43.570;1.448;2024-01-16T07:56:14;4.27;;;1.30;;
14847;SDS011;7516;43.570;1.448;2024-01-16T07:58:41;2.23;;;1.03;;
14847;SDS011;7516;43.570;1.448;2024-01-16T08:01:08;2.67;;;0.83;;
14847;SDS011;7516;43.570;1.448;2024-01-16T08:03:36;1.13;;;0.83;;
14847;SDS011;7516;43.570;1.448;2024-01-16T08:06:04;3.10;;;1.23;;
14847;SDS011;7516;43.570;1.448;2024-01-16T08:08:32;3.00;;;1.20;;
14847;SDS011;7516;43.570;1.448;2024-01-16T08:11:00;1.57;;;1.20;;
14847;SDS011;7516;43.570;1.448;2024-01-16T08:13:27;2.20;;;1.30;;
14847;SDS011;7516;43.570;1.448;2024-01-16T08:15:55;6.63;;;2.30;;
14847;SDS011;7516;43.570;1.448;2024-01-16T08:18:22;3.27;;;1.23;;
14847;SDS011;7516;43.570;1.448;2024-01-16T08:20:50;4.63;;;1.23;;
14847;SDS011;7516;43.570;1.448;2024-01-16T08:23:17;2.13;;;1.17;;
14847;SDS011;7516;43.570;1.448;2024-01-16T08:25:47;1.30;;;1.07;;
14847;SDS011;7516;43.570;1.448;2024-01-16T08:28:16;2.37;;;1.17;;
14847;SDS011;7516;43.570;1.448;2024-01-16T08:30:44;2.10;;;1.40;;
14847;SDS011;7516;43.570;1.448;2024-01-16T08:33:11;1.53;;;1.10;;
14847;SDS011;7516;43.570;1.448;2024-01-16T08:35:39;4.80;;;1.20;;
14847;SDS011;7516;43.570;1.448;2024-01-16T08:38:07;2.20;;;1.20;;
14847;SDS011;7516;43.570;1.448;2024-01-16T08:40:34;4.60;;;1.40;;
14847;SDS011;7516;43.570;1.448;2024-01-16T08:43:03;3.43;;;1.37;;
14847;SDS011;7516;43.570;1.448;2024-01-16T08:45:31;2.87;;;1.57;;
14847;SDS011;7516;43.570;1.448;2024-01-16T08:47:58;1.57;;;1.13;;
14847;SDS011;7516;43.570;1.448;2024-01-16T08:50:26;2.20;;;1.50;;
14847;SDS011;7516;43.570;1.448;2024-01-16T08:52:55;1.60;;;1.50;;
14847;SDS011;7516;43.570;1.448;2024-01-16T08:55:23;3.43;;;1.43;;
14847;SDS011;7516;43.570;1.448;2024-01-16T08:57:50;4.10;;;1.60;;
14847;SDS011;7516;43.570;1.448;2024-01-16T09:00:19;3.63;;;1.70;;
14847;SDS011;7516;43.570;1.448;2024-01-16T09:02:47;1.73;;;1.50;;
14847;SDS011;7516;43.570;1.448;2024-01-16T09:05:14;2.23;;;1.33;;
14847;SDS011;7516;43.570;1.448;2024-01-16T09:07:42;2.13;;;1.20;;
14847;SDS011;7516;43.570;1.448;2024-01-16T09:10:09;1.70;;;1.20;;
14847;SDS011;7516;43.570;1.448;2024-01-16T09:12:37;2.47;;;1.20;;
14847;SDS011;7516;43.570;1.448;2024-01-16T09:15:05;3.57;;;1.10;;
14847;SDS011;7516;43.570;1.448;2024-01-16T09:17:35;2.07;;;1.07;;
14847;SDS011;7516;43.570;1.448;2024-01-16T09:20:04;2.07;;;1.20;;
14847;SDS011;7516;43.570;1.448;2024-01-16T09:22:33;2.97;;;1.40;;
14847;SDS011;7516;43.570;1.448;2024-01-16T09:25:00;3.07;;;1.23;;
14847;SDS011;7516;43.570;1.448;2024-01-16T09:27:28;2.37;;;1.10;;
14847;SDS011;7516;43.570;1.448;2024-01-16T09:29:55;3.17;;;1.17;;
14847;SDS011;7516;43.570;1.448;2024-01-16T09:32:22;2.93;;;1.30;;
14847;SDS011;7516;43.570;1.448;2024-01-16T09:34:51;2.90;;;1.27;;
14847;SDS011;7516;43.570;1.448;2024-01-16T09:37:19;1.77;;;1.00;;
14847;SDS011;7516;43.570;1.448;2024-01-16T09:39:46;3.53;;;1.30;;
14847;SDS011;7516;43.570;1.448;2024-01-16T09:42:15;4.33;;;1.40;;
14847;SDS011;7516;43.570;1.448;2024-01-16T09:44:44;3.03;;;1.17;;
14847;SDS011;7516;43.570;1.448;2024-01-16T09:47:11;1.73;;;1.10;;
14847;SDS011;7516;43.570;1.448;2024-01-16T09:49:39;2.93;;;1.03;;
14847;SDS011;7516;43.570;1.448;2024-01-16T09:52:10;2.93;;;1.17;;
14847;SDS011;7516;43.570;1.448;2024-01-16T09:54:37;3.17;;;1.77;;
14847;SDS011;7516;43.570;1.448;2024-01-16T09:57:04;2.50;;;1.10;;
14847;SDS011;7516;43.570;1.448;2024-01-16T09:59:35;4.10;;;1.07;;
14847;SDS011;7516;43.570;1.448;2024-01-16T10:02:04;4.00;;;1.10;;
14847;SDS011;7516;43.570;1.448;2024-01-16T10:04:33;2.77;;;1.00;;
14847;SDS011;7516;43.570;1.448;2024-01-16T10:07:01;4.73;;;1.47;;
14847;SDS011;7516;43.570;1.448;2024-01-16T10:09:31;2.67;;;0.93;;
14847;SDS011;7516;43.570;1.448;2024-01-16T10:11:59;3.57;;;1.10;;
14847;SDS011;7516;43.570;1.448;2024-01-16T10:14:28;5.43;;;1.00;;
14847;SDS011;7516;43.570;1.448;2024-01-16T10:16:56;2.50;;;0.90;;
14847;SDS011;7516;43.570;1.448;2024-01-16T10:19:30;3.17;;;1.20;;
14847;SDS011;7516;43.570;1.448;2024-01-16T10:22:02;3.53;;;1.20;;
14847;SDS011;7516;43.570;1.448;2024-01-16T10:24:29;4.40;;;0.90;;
14847;SDS011;7516;43.570;1.448;2024-01-16T10:27:00;3.43;;;1.10;;
14847;SDS011;7516;43.570;1.448;2024-01-16T10:29:29;2.93;;;0.90;;
14847;SDS011;7516;43.570;1.448;2024-01-16T10:31:56;3.53;;;1.30;;
14847;SDS011;7516;43.570;1.448;2024-01-16T10:34:24;3.13;;;1.00;;
14847;SDS011;7516;43.570;1.448;2024-01-16T10:36:58;4.77;;;1.10;;
14847;SDS011;7516;43.570;1.448;2024-01-16T10:39:26;3.60;;;0.90;;
14847;SDS011;7516;43.570;1.448;2024-01-16T10:41:56;2.73;;;1.00;;
14847;SDS011;7516;43.570;1.448;2024-01-16T10:44:24;3.17;;;1.13;;
14847;SDS011;7516;43.570;1.448;2024-01-16T10:46:52;3.47;;;1.00;;
14847;SDS011;7516;43.570;1.448;2024-01-16T10:49:35;4.67;;;1.10;;
14847;SDS011;7516;43.570;1.448;2024-01-16T10:52:03;5.43;;;1.20;;
14847;SDS011;7516;43.570;1.448;2024-01-16T10:54:37;5.00;;;1.07;;
14847;SDS011;7516;43.570;1.448;2024-01-16T10:57:09;4.17;;;1.20;;
14847;SDS011;7516;43.570;1.448;2024-01-16T10:59:39;4.90;;;1.20;;
14847;SDS011;7516;43.570;1.448;2024-01-16T11:02:14;4.73;;;1.37;;
14847;SDS011;7516;43.570;1.448;2024-01-16T11:04:46;3.10;;;1.10;;
14847;SDS011;7516;43.570;1.448;2024-01-16T11:07:15;3.40;;;1.40;;
14847;SDS011;7516;43.570;1.448;2024-01-16T11:09:43;4.97;;;1.07;;
14847;SDS011;7516;43.570;1.448;2024-01-16T11:12:13;1.97;;;1.03;;
14847;SDS011;7516;43.570;1.448;2024-01-16T11:14:42;4.77;;;1.27;;
14847;SDS011;7516;43.570;1.448;2024-01-16T11:17:11;4.57;;;1.10;;
14847;SDS011;7516;43.570;1.448;2024-01-16T11:19:43;4.30;;;1.37;;
14847;SDS011;7516;43.570;1.448;2024-01-16T11:22:11;2.97;;;1.30;;
14847;SDS011;7516;43.570;1.448;2024-01-16T11:24:40;4.20;;;1.77;;
14847;SDS011;7516;43.570;1.448;2024-01-16T11:27:08;3.00;;;1.23;;
14847;SDS011;7516;43.570;1.448;2024-01-16T11:29:50;3.07;;;0.93;;
14847;SDS011;7516;43.570;1.448;2024-01-16T11:32:32;4.63;;;1.40;;
14847;SDS011;7516;43.570;1.448;2024-01-16T11:35:01;5.37;;;1.30;;
14847;SDS011;7516;43.570;1.448;2024-01-16T11:37:29;2.43;;;1.37;;
14847;SDS011;7516;43.570;1.448;2024-01-16T11:46:05;3.40;;;1.17;;
14847;SDS011;7516;43.570;1.448;2024-01-16T11:48:33;2.70;;;1.00;;
14847;SDS011;7516;43.570;1.448;2024-01-16T11:51:22;3.53;;;1.13;;
14847;SDS011;7516;43.570;1.448;2024-01-16T11:53:50;3.47;;;1.03;;
14847;SDS011;7516;43.570;1.448;2024-01-16T11:56:34;3.00;;;1.03;;
14847;SDS011;7516;43.570;1.448;2024-01-16T12:02:29;4.07;;;1.23;;
14847;SDS011;7516;43.570;1.448;2024-01-16T12:05:16;3.97;;;1.00;;
14847;SDS011;7516;43.570;1.448;2024-01-16T12:07:47;3.53;;;1.30;;
14847;SDS011;7516;43.570;1.448;2024-01-16T12:10:18;1.90;;;1.10;;
14847;SDS011;7516;43.570;1.448;2024-01-16T12:12:47;1.80;;;1.00;;
14847;SDS011;7516;43.570;1.448;2024-01-16T12:15:16;3.63;;;1.10;;
14847;SDS011;7516;43.570;1.448;2024-01-16T12:17:56;4.60;;;1.30;;
14847;SDS011;7516;43.570;1.448;2024-01-16T12:20:25;3.87;;;1.30;;
14847;SDS011;7516;43.570;1.448;2024-01-16T12:22:54;3.07;;;1.23;;
14847;SDS011;7516;43.570;1.448;2024-01-16T12:25:26;2.57;;;1.20;;
14847;SDS011;7516;43.570;1.448;2024-01-16T12:27:57;4.33;;;1.50;;
14847;SDS011;7516;43.570;1.448;2024-01-16T12:30:25;3.97;;;1.10;;
14847;SDS011;7516;43.570;1.448;2024-01-16T12:35:42;3.83;;;1.00;;
14847;SDS011;7516;43.570;1.448;2024-01-16T12:38:11;3.57;;;1.00;;
14847;SDS011;7516;43.570;1.448;2024-01-16T12:40:40;3.60;;;0.97;;
14847;SDS011;7516;43.570;1.448;2024-01-16T12:43:11;2.27;;;1.10;;
14847;SDS011;7516;43.570;1.448;2024-01-16T12:45:38;1.80;;;1.00;;
14847;SDS011;7516;43.570;1.448;2024-01-16T12:48:06;3.60;;;1.17;;
14847;SDS011;7516;43.570;1.448;2024-01-16T12:50:35;3.93;;;1.17;;
14847;SDS011;7516;43.570;1.448;2024-01-16T12:53:03;2.03;;;1.17;;
14847;SDS011;7516;43.570;1.448;2024-01-16T12:55:31;16.37;;;2.10;;
14847;SDS011;7516;43.570;1.448;2024-01-16T12:58:16;2.13;;;0.90;;
14847;SDS011;7516;43.570;1.448;2024-01-16T13:00:45;5.00;;;1.23;;
14847;SDS011;7516;43.570;1.448;2024-01-16T13:03:16;2.47;;;1.00;;
14847;SDS011;7516;43.570;1.448;2024-01-16T13:05:46;2.80;;;1.30;;
14847;SDS011;7516;43.570;1.448;2024-01-16T13:08:22;1.80;;;1.10;;
14847;SDS011;7516;43.570;1.448;2024-01-16T13:11:01;5.23;;;1.40;;
14847;SDS011;7516;43.570;1.448;2024-01-16T13:13:30;3.93;;;1.33;;
14847;SDS011;7516;43.570;1.448;2024-01-16T13:15:58;2.83;;;1.10;;
14847;SDS011;7516;43.570;1.448;2024-01-16T13:18:26;1.83;;;1.03;;
14847;SDS011;7516;43.570;1.448;2024-01-16T13:20:56;2.23;;;1.00;;
14847;SDS011;7516;43.570;1.448;2024-01-16T13:23:25;2.83;;;1.03;;
14847;SDS011;7516;43.570;1.448;2024-01-16T13:25:53;2.57;;;1.00;;
14847;SDS011;7516;43.570;1.448;2024-01-16T13:28:22;2.87;;;1.10;;
14847;SDS011;7516;43.570;1.448;2024-01-16T13:30:49;3.67;;;1.20;;
14847;SDS011;7516;43.570;1.448;2024-01-16T13:33:17;2.40;;;1.20;;
14847;SDS011;7516;43.570;1.448;2024-01-16T13:35:46;2.27;;;1.03;;
14847;SDS011;7516;43.570;1.448;2024-01-16T13:38:15;3.27;;;1.30;;
14847;SDS011;7516;43.570;1.448;2024-01-16T13:40:44;3.43;;;1.00;;
14847;SDS011;7516;43.570;1.448;2024-01-16T13:43:12;3.33;;;1.10;;
14847;SDS011;7516;43.570;1.448;2024-01-16T13:45:39;4.57;;;1.30;;
14847;SDS011;7516;43.570;1.448;2024-01-16T13:48:07;2.60;;;1.20;;
14847;SDS011;7516;43.570;1.448;2024-01-16T13:50:35;3.20;;;1.60;;
14847;SDS011;7516;43.570;1.448;2024-01-16T13:53:02;3.67;;;1.33;;
14847;SDS011;7516;43.570;1.448;2024-01-16T13:55:31;3.13;;;1.10;;
14847;SDS011;7516;43.570;1.448;2024-01-16T13:57:59;2.77;;;1.10;;
14847;SDS011;7516;43.570;1.448;2024-01-16T14:00:26;4.50;;;1.50;;
14847;SDS011;7516;43.570;1.448;2024-01-16T14:02:54;3.23;;;1.00;;
14847;SDS011;7516;43.570;1.448;2024-01-16T14:05:21;4.00;;;1.10;;
14847;SDS011;7516;43.570;1.448;2024-01-16T14:07:51;4.27;;;1.20;;
14847;SDS011;7516;43.570;1.448;2024-01-16T14:10:20;4.37;;;1.27;;
14847;SDS011;7516;43.570;1.448;2024-01-16T14:12:51;2.07;;;1.17;;
14847;SDS011;7516;43.570;1.448;2024-01-16T14:15:19;1.87;;;1.03;;
14847;SDS011;7516;43.570;1.448;2024-01-16T14:17:49;4.67;;;1.30;;
14847;SDS011;7516;43.570;1.448;2024-01-16T14:20:18;3.83;;;1.10;;
14847;SDS011;7516;43.570;1.448;2024-01-16T14:22:48;3.00;;;1.00;;
14847;SDS011;7516;43.570;1.448;2024-01-16T14:25:17;3.97;;;1.37;;
14847;SDS011;7516;43.570;1.448;2024-01-16T14:27:45;3.90;;;1.17;;
14847;SDS011;7516;43.570;1.448;2024-01-16T14:30:16;2.93;;;1.10;;
14847;SDS011;7516;43.570;1.448;2024-01-16T14:32:44;2.63;;;0.90;;
14847;SDS011;7516;43.570;1.448;2024-01-16T14:35:12;2.97;;;1.20;;
14847;SDS011;7516;43.570;1.448;2024-01-16T14:37:42;3.37;;;1.20;;
14847;SDS011;7516;43.570;1.448;2024-01-16T14:40:10;2.37;;;1.13;;
14847;SDS011;7516;43.570;1.448;2024-01-16T14:42:41;3.70;;;1.13;;
14847;SDS011;7516;43.570;1.448;2024-01-16T14:45:09;3.93;;;1.10;;
14847;SDS011;7516;43.570;1.448;2024-01-16T14:47:39;4.53;;;1.60;;
14847;SDS011;7516;43.570;1.448;2024-01-16T14:50:07;3.90;;;1.00;;
14847;SDS011;7516;43.570;1.448;2024-01-16T14:52:37;3.23;;;1.10;;
14847;SDS011;7516;43.570;1.448;2024-01-16T14:55:05;1.43;;;0.90;;
14847;SDS011;7516;43.570;1.448;2024-01-16T14:57:33;3.10;;;1.20;;
14847;SDS011;7516;43.570;1.448;2024-01-16T15:00:07;5.27;;;1.10;;
14847;SDS011;7516;43.570;1.448;2024-01-16T15:02:46;1.30;;;1.10;;
14847;SDS011;7516;43.570;1.448;2024-01-16T15:05:14;2.43;;;1.10;;
14847;SDS011;7516;43.570;1.448;2024-01-16T15:07:41;3.20;;;1.07;;
14847;SDS011;7516;43.570;1.448;2024-01-16T15:10:09;1.33;;;0.80;;
14847;SDS011;7516;43.570;1.448;2024-01-16T15:12:37;1.73;;;1.00;;
14847;SDS011;7516;43.570;1.448;2024-01-16T15:15:08;2.13;;;1.10;;
14847;SDS011;7516;43.570;1.448;2024-01-16T15:17:38;4.00;;;1.50;;
14847;SDS011;7516;43.570;1.448;2024-01-16T15:20:08;3.80;;;1.67;;
14847;SDS011;7516;43.570;1.448;2024-01-16T15:22:37;3.83;;;1.27;;
14847;SDS011;7516;43.570;1.448;2024-01-16T15:25:05;2.80;;;1.23;;